sensor_id;sensor_type;location;lat;lon;timestamp;P1;durP1;ratioP1;P2;durP2;ratioP2
7525;SDS011;3804;50.860;6.208;2022-09-09T00:00:40;3.93;;;1.10;;
7525;SDS011;3804;50.860;6.208;2022-09-09T00:03:12;2.30;;;1.07;;
7525;SDS011;3804;50.860;6.208;2022-09-09T00:08:07;3.73;;;1.30;;
7525;SDS011;3804;50.860;6.208;2022-09-09T00:10:37;3.07;;;1.00;;
7525;SDS011;3804;50.860;6.208;2022-09-09T00:16:17;4.67;;;1.20;;
7525;SDS011;3804;50.860;6.208;2022-09-09T00:21:08;1.47;;;1.03;;
7525;SDS011;3804;50.860;6.208;2022-09-09T00:23:38;1.93;;;0.90;;
7525;SDS011;3804;50.860;6.208;2022-09-09T00:26:17;2.47;;;1.20;;
7525;SDS011;3804;50.860;6.208;2022-09-09T00:28:49;1.13;;;0.93;;
7525;SDS011;3804;50.860;6.208;2022-09-09T00:31:22;2.03;;;1.10;;
7525;SDS011;3804;50.860;6.208;2022-09-09T00:33:50;2.23;;;1.13;;
7525;SDS011;3804;50.860;6.208;2022-09-09T00:36:18;2.70;;;0.90;;
7525;SDS011;3804;50.860;6.208;2022-09-09T00:38:48;2.40;;;1.30;;
7525;SDS011;3804;50.860;6.208;2022-09-09T00:43:46;2.03;;;1.00;;
7525;SDS011;3804;50.860;6.208;2022-09-09T00:56:38;2.40;;;1.30;;
7525;SDS011;3804;50.860;6.208;2022-09-09T00:59:16;3.10;;;1.43;;
7525;SDS011;3804;50.860;6.208;2022-09-09T01:01:45;3.80;;;1.50;;
7525;SDS011;3804;50.860;6.208;2022-09-09T01:04:13;2.77;;;1.20;;
7525;SDS011;3804;50.860;6.208;2022-09-09T01:06:42;4.50;;;1.70;;
7525;SDS011;3804;50.860;6.208;2022-09-09T01:17:05;5.37;;;1.60;;
7525;SDS011;3804;50.860;6.208;2022-09-09T01:22:18;5.40;;;1.60;;
7525;SDS011;3804;50.860;6.208;2022-09-09T01:25:05;2.87;;;1.70;;
7525;SDS011;3804;50.860;6.208;2022-09-09T01:28:00;2.97;;;1.90;;
7525;SDS011;3804;50.860;6.208;2022-09-09T01:30:29;4.53;;;1.60;;
7525;SDS011;3804;50.860;6.208;2022-09-09T01:32:58;3.83;;;1.83;;
7525;SDS011;3804;50.860;6.208;2022-09-09T01:38:12;2.97;;;1.63;;
7525;SDS011;3804;50.860;6.208;2022-09-09T01:40:40;3.43;;;1.90;;
7525;SDS011;3804;50.860;6.208;2022-09-09T01:43:07;4.10;;;1.90;;
7525;SDS011;3804;50.860;6.208;2022-09-09T01:45:35;6.03;;;1.70;;
7525;SDS011;3804;50.860;6.208;2022-09-09T01:48:02;2.57;;;1.97;;
7525;SDS011;3804;50.860;6.208;2022-09-09T01:50:50;7.60;;;2.30;;
7525;SDS011;3804;50.860;6.208;2022-09-09T01:53:18;3.03;;;1.77;;
7525;SDS011;3804;50.860;6.208;2022-09-09T01:58:32;7.33;;;2.43;;
7525;SDS011;3804;50.860;6.208;2022-09-09T02:03:28;2.97;;;1.47;;
7525;SDS011;3804;50.860;6.208;2022-09-09T02:08:55;5.00;;;2.23;;
7525;SDS011;3804;50.860;6.208;2022-09-09T02:11:24;4.13;;;1.80;;
7525;SDS011;3804;50.860;6.208;2022-09-09T02:14:13;5.53;;;2.03;;
7525;SDS011;3804;50.860;6.208;2022-09-09T02:16:50;6.37;;;2.03;;
7525;SDS011;3804;50.860;6.208;2022-09-09T02:19:29;4.77;;;2.00;;
7525;SDS011;3804;50.860;6.208;2022-09-09T02:22:19;5.63;;;1.90;;
7525;SDS011;3804;50.860;6.208;2022-09-09T02:24:46;5.63;;;1.97;;
7525;SDS011;3804;50.860;6.208;2022-09-09T02:27:19;5.73;;;1.97;;
7525;SDS011;3804;50.860;6.208;2022-09-09T02:29:46;6.00;;;2.13;;
7525;SDS011;3804;50.860;6.208;2022-09-09T02:32:17;5.00;;;1.77;;
7525;SDS011;3804;50.860;6.208;2022-09-09T02:34:50;5.90;;;2.10;;
7525;SDS011;3804;50.860;6.208;2022-09-09T02:37:19;7.33;;;2.33;;
7525;SDS011;3804;50.860;6.208;2022-09-09T02:39:50;3.70;;;1.90;;
7525;SDS011;3804;50.860;6.208;2022-09-09T02:42:20;4.57;;;2.10;;
7525;SDS011;3804;50.860;6.208;2022-09-09T02:44:48;3.73;;;1.87;;
7525;SDS011;3804;50.860;6.208;2022-09-09T02:53:14;4.67;;;1.90;;
7525;SDS011;3804;50.860;6.208;2022-09-09T02:57:49;7.93;;;1.80;;
7525;SDS011;3804;50.860;6.208;2022-09-09T03:00:22;6.33;;;1.77;;
7525;SDS011;3804;50.860;6.208;2022-09-09T03:02:49;5.67;;;1.90;;
7525;SDS011;3804;50.860;6.208;2022-09-09T03:05:15;6.50;;;2.07;;
7525;SDS011;3804;50.860;6.208;2022-09-09T03:07:42;4.33;;;1.80;;
7525;SDS011;3804;50.860;6.208;2022-09-09T03:10:09;7.70;;;2.00;;
7525;SDS011;3804;50.860;6.208;2022-09-09T03:12:37;2.87;;;1.90;;
7525;SDS011;3804;50.860;6.208;2022-09-09T03:15:04;5.80;;;2.50;;
7525;SDS011;3804;50.860;6.208;2022-09-09T03:17:31;3.10;;;1.70;;
7525;SDS011;3804;50.860;6.208;2022-09-09T03:19:58;4.20;;;2.10;;
7525;SDS011;3804;50.860;6.208;2022-09-09T03:22:25;9.23;;;2.23;;
7525;SDS011;3804;50.860;6.208;2022-09-09T03:24:53;6.53;;;2.40;;
7525;SDS011;3804;50.860;6.208;2022-09-09T03:27:20;6.30;;;1.70;;
7525;SDS011;3804;50.860;6.208;2022-09-09T03:29:46;6.77;;;2.43;;
7525;SDS011;3804;50.860;6.208;2022-09-09T03:32:18;4.33;;;2.43;;
7525;SDS011;3804;50.860;6.208;2022-09-09T03:34:45;6.50;;;2.00;;
7525;SDS011;3804;50.860;6.208;2022-09-09T03:37:14;7.40;;;2.17;;
7525;SDS011;3804;50.860;6.208;2022-09-09T03:39:41;8.03;;;2.13;;
7525;SDS011;3804;50.860;6.208;2022-09-09T03:42:08;5.90;;;2.43;;
7525;SDS011;3804;50.860;6.208;2022-09-09T03:44:35;4.90;;;2.47;;
7525;SDS011;3804;50.860;6.208;2022-09-09T03:47:02;8.37;;;2.60;;
7525;SDS011;3804;50.860;6.208;2022-09-09T03:49:28;5.23;;;2.27;;
7525;SDS011;3804;50.860;6.208;2022-09-09T03:51:56;3.60;;;2.00;;
7525;SDS011;3804;50.860;6.208;2022-09-09T03:54:24;5.03;;;2.10;;
7525;SDS011;3804;50.860;6.208;2022-09-09T03:56:50;8.60;;;2.63;;
7525;SDS011;3804;50.860;6.208;2022-09-09T03:59:17;9.53;;;2.60;;
7525;SDS011;3804;50.860;6.208;2022-09-09T04:01:44;5.27;;;2.50;;
7525;SDS011;3804;50.860;6.208;2022-09-09T04:04:11;7.93;;;2.40;;
7525;SDS011;3804;50.860;6.208;2022-09-09T04:06:38;9.13;;;2.30;;
7525;SDS011;3804;50.860;6.208;2022-09-09T04:09:06;6.37;;;2.13;;
7525;SDS011;3804;50.860;6.208;2022-09-09T04:11:33;6.17;;;2.17;;
7525;SDS011;3804;50.860;6.208;2022-09-09T04:14:00;9.70;;;2.23;;
7525;SDS011;3804;50.860;6.208;2022-09-09T04:16:28;9.63;;;2.60;;
7525;SDS011;3804;50.860;6.208;2022-09-09T04:18:55;4.33;;;2.00;;
7525;SDS011;3804;50.860;6.208;2022-09-09T04:21:22;8.57;;;2.50;;
7525;SDS011;3804;50.860;6.208;2022-09-09T04:23:49;6.80;;;2.40;;
7525;SDS011;3804;50.860;6.208;2022-09-09T04:26:17;6.67;;;2.40;;
7525;SDS011;3804;50.860;6.208;2022-09-09T04:28:44;6.17;;;1.90;;
7525;SDS011;3804;50.860;6.208;2022-09-09T04:31:17;10.73;;;2.87;;
7525;SDS011;3804;50.860;6.208;2022-09-09T04:33:46;8.53;;;2.63;;
7525;SDS011;3804;50.860;6.208;2022-09-09T04:36:13;10.70;;;2.90;;
7525;SDS011;3804;50.860;6.208;2022-09-09T04:38:40;11.63;;;2.90;;
7525;SDS011;3804;50.860;6.208;2022-09-09T04:41:07;8.20;;;2.27;;
7525;SDS011;3804;50.860;6.208;2022-09-09T04:43:36;8.03;;;2.57;;
7525;SDS011;3804;50.860;6.208;2022-09-09T04:46:05;4.63;;;1.90;;
7525;SDS011;3804;50.860;6.208;2022-09-09T04:48:32;6.07;;;2.30;;
7525;SDS011;3804;50.860;6.208;2022-09-09T04:51:01;6.57;;;2.00;;
7525;SDS011;3804;50.860;6.208;2022-09-09T04:53:29;7.30;;;1.97;;
7525;SDS011;3804;50.860;6.208;2022-09-09T04:58:33;6.03;;;1.80;;
7525;SDS011;3804;50.860;6.208;2022-09-09T05:01:10;6.20;;;1.80;;
7525;SDS011;3804;50.860;6.208;2022-09-09T05:03:40;2.70;;;1.60;;
7525;SDS011;3804;50.860;6.208;2022-09-09T05:06:10;6.40;;;1.87;;
7525;SDS011;3804;50.860;6.208;2022-09-09T05:08:37;3.70;;;2.03;;
7525;SDS011;3804;50.860;6.208;2022-09-09T05:13:52;3.37;;;1.60;;
7525;SDS011;3804;50.860;6.208;2022-09-09T05:16:20;4.33;;;2.00;;
7525;SDS011;3804;50.860;6.208;2022-09-09T05:18:47;4.50;;;1.97;;
7525;SDS011;3804;50.860;6.208;2022-09-09T05:21:14;3.43;;;1.80;;
7525;SDS011;3804;50.860;6.208;2022-09-09T05:23:41;5.00;;;1.90;;
7525;SDS011;3804;50.860;6.208;2022-09-09T05:26:12;5.83;;;1.80;;
7525;SDS011;3804;50.860;6.208;2022-09-09T05:28:44;4.27;;;2.10;;
7525;SDS011;3804;50.860;6.208;2022-09-09T05:31:12;6.53;;;2.00;;
7525;SDS011;3804;50.860;6.208;2022-09-09T05:33:40;5.80;;;1.90;;
7525;SDS011;3804;50.860;6.208;2022-09-09T05:36:08;4.40;;;1.67;;
7525;SDS011;3804;50.860;6.208;2022-09-09T05:38:35;6.67;;;2.20;;
7525;SDS011;3804;50.860;6.208;2022-09-09T05:41:03;6.97;;;2.50;;
7525;SDS011;3804;50.860;6.208;2022-09-09T05:43:30;7.87;;;2.07;;
7525;SDS011;3804;50.860;6.208;2022-09-09T05:46:05;6.60;;;2.00;;
7525;SDS011;3804;50.860;6.208;2022-09-09T05:48:32;4.30;;;1.53;;
7525;SDS011;3804;50.860;6.208;2022-09-09T05:51:01;8.73;;;1.77;;
7525;SDS011;3804;50.860;6.208;2022-09-09T05:53:29;5.10;;;1.90;;
7525;SDS011;3804;50.860;6.208;2022-09-09T05:56:03;5.73;;;1.90;;
7525;SDS011;3804;50.860;6.208;2022-09-09T05:58:32;4.40;;;1.53;;
7525;SDS011;3804;50.860;6.208;2022-09-09T06:01:02;5.17;;;1.70;;
7525;SDS011;3804;50.860;6.208;2022-09-09T06:03:30;5.83;;;1.83;;
7525;SDS011;3804;50.860;6.208;2022-09-09T06:05:59;6.10;;;1.87;;
7525;SDS011;3804;50.860;6.208;2022-09-09T06:08:26;2.57;;;1.40;;
7525;SDS011;3804;50.860;6.208;2022-09-09T06:10:53;5.70;;;1.57;;
7525;SDS011;3804;50.860;6.208;2022-09-09T06:13:20;7.57;;;1.80;;
7525;SDS011;3804;50.860;6.208;2022-09-09T06:15:50;7.70;;;2.10;;
7525;SDS011;3804;50.860;6.208;2022-09-09T06:18:18;6.70;;;2.23;;
7525;SDS011;3804;50.860;6.208;2022-09-09T06:20:59;4.50;;;1.73;;
7525;SDS011;3804;50.860;6.208;2022-09-09T06:23:27;3.67;;;1.53;;
7525;SDS011;3804;50.860;6.208;2022-09-09T06:26:01;5.63;;;2.00;;
7525;SDS011;3804;50.860;6.208;2022-09-09T06:28:28;5.43;;;1.77;;
7525;SDS011;3804;50.860;6.208;2022-09-09T06:31:02;4.27;;;1.80;;
7525;SDS011;3804;50.860;6.208;2022-09-09T06:33:30;3.80;;;1.70;;
7525;SDS011;3804;50.860;6.208;2022-09-09T06:35:57;5.47;;;1.50;;
7525;SDS011;3804;50.860;6.208;2022-09-09T06:38:24;5.90;;;1.70;;
7525;SDS011;3804;50.860;6.208;2022-09-09T06:40:54;4.07;;;1.60;;
7525;SDS011;3804;50.860;6.208;2022-09-09T06:43:22;5.03;;;1.43;;
7525;SDS011;3804;50.860;6.208;2022-09-09T06:45:54;3.93;;;1.70;;
7525;SDS011;3804;50.860;6.208;2022-09-09T06:48:21;6.60;;;2.00;;
7525;SDS011;3804;50.860;6.208;2022-09-09T06:50:48;6.67;;;1.63;;
7525;SDS011;3804;50.860;6.208;2022-09-09T06:53:17;5.00;;;1.90;;
7525;SDS011;3804;50.860;6.208;2022-09-09T06:55:45;5.03;;;1.57;;
7525;SDS011;3804;50.860;6.208;2022-09-09T06:58:12;5.40;;;1.90;;
7525;SDS011;3804;50.860;6.208;2022-09-09T07:00:39;4.77;;;1.73;;
7525;SDS011;3804;50.860;6.208;2022-09-09T07:03:06;5.63;;;1.63;;
7525;SDS011;3804;50.860;6.208;2022-09-09T07:05:33;4.93;;;1.80;;
7525;SDS011;3804;50.860;6.208;2022-09-09T07:07:59;5.10;;;1.70;;
7525;SDS011;3804;50.860;6.208;2022-09-09T07:10:26;3.13;;;1.20;;
7525;SDS011;3804;50.860;6.208;2022-09-09T07:12:54;3.97;;;1.63;;
7525;SDS011;3804;50.860;6.208;2022-09-09T07:15:23;5.77;;;1.40;;
7525;SDS011;3804;50.860;6.208;2022-09-09T07:17:52;4.83;;;1.73;;
7525;SDS011;3804;50.860;6.208;2022-09-09T07:20:20;5.47;;;1.80;;
7525;SDS011;3804;50.860;6.208;2022-09-09T07:22:47;6.57;;;1.63;;
7525;SDS011;3804;50.860;6.208;2022-09-09T07:25:13;4.97;;;1.70;;
7525;SDS011;3804;50.860;6.208;2022-09-09T07:27:41;5.57;;;1.63;;
7525;SDS011;3804;50.860;6.208;2022-09-09T07:30:08;4.83;;;1.60;;
7525;SDS011;3804;50.860;6.208;2022-09-09T07:32:35;5.93;;;1.93;;
7525;SDS011;3804;50.860;6.208;2022-09-09T07:35:02;5.50;;;1.67;;
7525;SDS011;3804;50.860;6.208;2022-09-09T07:37:29;7.97;;;2.27;;
7525;SDS011;3804;50.860;6.208;2022-09-09T07:39:56;5.63;;;1.87;;
7525;SDS011;3804;50.860;6.208;2022-09-09T07:42:23;10.37;;;2.73;;
7525;SDS011;3804;50.860;6.208;2022-09-09T07:44:50;7.57;;;2.20;;
7525;SDS011;3804;50.860;6.208;2022-09-09T07:47:21;10.07;;;1.90;;
7525;SDS011;3804;50.860;6.208;2022-09-09T07:49:49;6.97;;;1.90;;
7525;SDS011;3804;50.860;6.208;2022-09-09T07:52:21;9.53;;;2.20;;
7525;SDS011;3804;50.860;6.208;2022-09-09T07:54:52;6.23;;;1.60;;
7525;SDS011;3804;50.860;6.208;2022-09-09T07:57:19;7.83;;;2.00;;
7525;SDS011;3804;50.860;6.208;2022-09-09T07:59:47;7.40;;;1.80;;
7525;SDS011;3804;50.860;6.208;2022-09-09T08:02:14;6.70;;;1.87;;
7525;SDS011;3804;50.860;6.208;2022-09-09T08:04:41;6.43;;;1.57;;
7525;SDS011;3804;50.860;6.208;2022-09-09T08:07:08;8.20;;;2.10;;
7525;SDS011;3804;50.860;6.208;2022-09-09T08:09:42;5.03;;;1.60;;
7525;SDS011;3804;50.860;6.208;2022-09-09T08:12:16;4.80;;;1.63;;
7525;SDS011;3804;50.860;6.208;2022-09-09T08:14:43;4.13;;;1.50;;
7525;SDS011;3804;50.860;6.208;2022-09-09T08:17:10;4.43;;;1.53;;
7525;SDS011;3804;50.860;6.208;2022-09-09T08:19:37;3.20;;;1.23;;
7525;SDS011;3804;50.860;6.208;2022-09-09T08:22:09;4.93;;;1.33;;
7525;SDS011;3804;50.860;6.208;2022-09-09T08:24:38;4.60;;;1.60;;
7525;SDS011;3804;50.860;6.208;2022-09-09T08:27:06;6.83;;;1.87;;
7525;SDS011;3804;50.860;6.208;2022-09-09T08:29:33;2.20;;;1.20;;
7525;SDS011;3804;50.860;6.208;2022-09-09T08:32:01;3.77;;;1.40;;
7525;SDS011;3804;50.860;6.208;2022-09-09T08:34:28;8.20;;;1.40;;
7525;SDS011;3804;50.860;6.208;2022-09-09T08:36:59;6.07;;;1.37;;
7525;SDS011;3804;50.860;6.208;2022-09-09T08:39:34;5.70;;;1.43;;
7525;SDS011;3804;50.860;6.208;2022-09-09T08:44:52;5.60;;;1.37;;
7525;SDS011;3804;50.860;6.208;2022-09-09T08:50:11;3.93;;;1.17;;
7525;SDS011;3804;50.860;6.208;2022-09-09T08:52:54;3.47;;;1.33;;
7525;SDS011;3804;50.860;6.208;2022-09-09T08:55:24;4.90;;;1.57;;
7525;SDS011;3804;50.860;6.208;2022-09-09T08:57:54;3.20;;;1.30;;
7525;SDS011;3804;50.860;6.208;2022-09-09T09:00:22;4.03;;;1.10;;
7525;SDS011;3804;50.860;6.208;2022-09-09T09:05:30;4.87;;;1.20;;
7525;SDS011;3804;50.860;6.208;2022-09-09T09:10:41;2.20;;;0.80;;
7525;SDS011;3804;50.860;6.208;2022-09-09T09:13:25;3.87;;;1.47;;
7525;SDS011;3804;50.860;6.208;2022-09-09T09:15:58;3.97;;;1.30;;
7525;SDS011;3804;50.860;6.208;2022-09-09T09:18:26;3.83;;;1.13;;
7525;SDS011;3804;50.860;6.208;2022-09-09T09:21:08;3.63;;;1.00;;
7525;SDS011;3804;50.860;6.208;2022-09-09T09:23:41;2.53;;;1.03;;
7525;SDS011;3804;50.860;6.208;2022-09-09T09:26:10;2.87;;;1.20;;
7525;SDS011;3804;50.860;6.208;2022-09-09T09:28:40;2.53;;;1.13;;
7525;SDS011;3804;50.860;6.208;2022-09-09T09:31:12;2.23;;;1.10;;
7525;SDS011;3804;50.860;6.208;2022-09-09T09:33:50;4.00;;;1.17;;
7525;SDS011;3804;50.860;6.208;2022-09-09T09:36:23;3.60;;;1.03;;
7525;SDS011;3804;50.860;6.208;2022-09-09T09:38:58;1.97;;;1.00;;
7525;SDS011;3804;50.860;6.208;2022-09-09T09:41:46;3.00;;;1.30;;
7525;SDS011;3804;50.860;6.208;2022-09-09T09:46:47;2.47;;;1.00;;
7525;SDS011;3804;50.860;6.208;2022-09-09T09:49:15;2.20;;;1.20;;
7525;SDS011;3804;50.860;6.208;2022-09-09T09:51:43;3.33;;;1.23;;
7525;SDS011;3804;50.860;6.208;2022-09-09T09:56:41;2.30;;;1.13;;
7525;SDS011;3804;50.860;6.208;2022-09-09T10:04:39;3.80;;;1.10;;
7525;SDS011;3804;50.860;6.208;2022-09-09T10:07:26;3.23;;;1.23;;
7525;SDS011;3804;50.860;6.208;2022-09-09T10:09:53;1.97;;;1.00;;
7525;SDS011;3804;50.860;6.208;2022-09-09T10:17:37;3.07;;;1.07;;
7525;SDS011;3804;50.860;6.208;2022-09-09T10:22:37;3.53;;;1.37;;
7525;SDS011;3804;50.860;6.208;2022-09-09T10:33:09;4.27;;;1.20;;
7525;SDS011;3804;50.860;6.208;2022-09-09T10:41:13;2.97;;;1.30;;
7525;SDS011;3804;50.860;6.208;2022-09-09T10:48:59;2.77;;;1.07;;
7525;SDS011;3804;50.860;6.208;2022-09-09T10:51:39;4.13;;;1.43;;
7525;SDS011;3804;50.860;6.208;2022-09-09T10:56:34;4.17;;;1.40;;
7525;SDS011;3804;50.860;6.208;2022-09-09T10:59:10;4.27;;;1.33;;
7525;SDS011;3804;50.860;6.208;2022-09-09T11:01:41;4.87;;;1.33;;
7525;SDS011;3804;50.860;6.208;2022-09-09T11:06:48;4.60;;;1.50;;
7525;SDS011;3804;50.860;6.208;2022-09-09T11:09:19;3.93;;;1.37;;
7525;SDS011;3804;50.860;6.208;2022-09-09T11:14:26;2.30;;;1.20;;
7525;SDS011;3804;50.860;6.208;2022-09-09T11:17:02;4.63;;;1.20;;
7525;SDS011;3804;50.860;6.208;2022-09-09T11:19:33;6.67;;;1.20;;
7525;SDS011;3804;50.860;6.208;2022-09-09T11:22:01;2.07;;;1.10;;
7525;SDS011;3804;50.860;6.208;2022-09-09T11:25:05;3.10;;;1.30;;
7525;SDS011;3804;50.860;6.208;2022-09-09T11:27:25;2.03;;;1.00;;
7525;SDS011;3804;50.860;6.208;2022-09-09T11:32:25;2.37;;;1.00;;
7525;SDS011;3804;50.860;6.208;2022-09-09T11:35:02;5.93;;;1.20;;
7525;SDS011;3804;50.860;6.208;2022-09-09T11:37:40;5.43;;;1.40;;
7525;SDS011;3804;50.860;6.208;2022-09-09T11:40:14;3.07;;;1.50;;
7525;SDS011;3804;50.860;6.208;2022-09-09T11:42:41;3.83;;;1.27;;
7525;SDS011;3804;50.860;6.208;2022-09-09T11:45:09;3.87;;;1.27;;
7525;SDS011;3804;50.860;6.208;2022-09-09T11:47:37;2.20;;;1.30;;
7525;SDS011;3804;50.860;6.208;2022-09-09T11:50:08;6.53;;;1.73;;
7525;SDS011;3804;50.860;6.208;2022-09-09T11:52:36;2.90;;;1.27;;
7525;SDS011;3804;50.860;6.208;2022-09-09T11:55:36;6.17;;;1.17;;
7525;SDS011;3804;50.860;6.208;2022-09-09T11:58:00;3.60;;;1.03;;
7525;SDS011;3804;50.860;6.208;2022-09-09T12:00:38;2.90;;;0.80;;
7525;SDS011;3804;50.860;6.208;2022-09-09T12:03:05;2.93;;;1.10;;
7525;SDS011;3804;50.860;6.208;2022-09-09T12:05:36;2.83;;;1.07;;
7525;SDS011;3804;50.860;6.208;2022-09-09T12:08:03;2.40;;;1.00;;
7525;SDS011;3804;50.860;6.208;2022-09-09T12:10:31;1.87;;;0.87;;
7525;SDS011;3804;50.860;6.208;2022-09-09T12:13:21;4.50;;;1.07;;
7525;SDS011;3804;50.860;6.208;2022-09-09T12:15:47;1.97;;;1.10;;
7525;SDS011;3804;50.860;6.208;2022-09-09T12:18:32;3.83;;;1.33;;
7525;SDS011;3804;50.860;6.208;2022-09-09T12:21:07;3.20;;;1.10;;
7525;SDS011;3804;50.860;6.208;2022-09-09T12:23:52;3.80;;;1.30;;
7525;SDS011;3804;50.860;6.208;2022-09-09T12:29:10;2.43;;;1.10;;
7525;SDS011;3804;50.860;6.208;2022-09-09T12:31:48;2.10;;;0.80;;
7525;SDS011;3804;50.860;6.208;2022-09-09T12:34:20;2.43;;;1.00;;
7525;SDS011;3804;50.860;6.208;2022-09-09T12:36:54;3.43;;;1.20;;
7525;SDS011;3804;50.860;6.208;2022-09-09T12:39:34;2.23;;;1.10;;
7525;SDS011;3804;50.860;6.208;2022-09-09T12:42:03;3.00;;;1.20;;
7525;SDS011;3804;50.860;6.208;2022-09-09T12:44:30;3.83;;;1.40;;
7525;SDS011;3804;50.860;6.208;2022-09-09T12:47:00;2.33;;;1.23;;
7525;SDS011;3804;50.860;6.208;2022-09-09T12:49:28;2.63;;;1.23;;
7525;SDS011;3804;50.860;6.208;2022-09-09T12:51:57;9.00;;;1.60;;
7525;SDS011;3804;50.860;6.208;2022-09-09T12:54:24;2.77;;;1.47;;
7525;SDS011;3804;50.860;6.208;2022-09-09T12:56:50;5.07;;;1.97;;
7525;SDS011;3804;50.860;6.208;2022-09-09T12:59:24;1.87;;;1.50;;
7525;SDS011;3804;50.860;6.208;2022-09-09T13:01:55;4.47;;;1.60;;
7525;SDS011;3804;50.860;6.208;2022-09-09T13:04:22;3.43;;;1.60;;
7525;SDS011;3804;50.860;6.208;2022-09-09T13:06:48;3.57;;;1.60;;
7525;SDS011;3804;50.860;6.208;2022-09-09T13:09:15;6.90;;;1.77;;
7525;SDS011;3804;50.860;6.208;2022-09-09T13:12:02;3.40;;;1.50;;
7525;SDS011;3804;50.860;6.208;2022-09-09T13:14:32;2.63;;;1.40;;
7525;SDS011;3804;50.860;6.208;2022-09-09T13:17:02;2.07;;;1.40;;
7525;SDS011;3804;50.860;6.208;2022-09-09T13:19:31;2.60;;;1.20;;
7525;SDS011;3804;50.860;6.208;2022-09-09T13:21:58;2.70;;;1.50;;
7525;SDS011;3804;50.860;6.208;2022-09-09T13:27:00;1.20;;;1.10;;
7525;SDS011;3804;50.860;6.208;2022-09-09T13:29:28;1.73;;;1.20;;
7525;SDS011;3804;50.860;6.208;2022-09-09T13:32:05;3.63;;;1.23;;
7525;SDS011;3804;50.860;6.208;2022-09-09T13:34:33;3.30;;;1.37;;
7525;SDS011;3804;50.860;6.208;2022-09-09T13:37:01;2.60;;;1.20;;
7525;SDS011;3804;50.860;6.208;2022-09-09T13:39:35;2.53;;;1.10;;
7525;SDS011;3804;50.860;6.208;2022-09-09T13:42:03;3.07;;;1.20;;
7525;SDS011;3804;50.860;6.208;2022-09-09T13:44:39;2.93;;;1.30;;
7525;SDS011;3804;50.860;6.208;2022-09-09T13:49:40;1.80;;;1.00;;
7525;SDS011;3804;50.860;6.208;2022-09-09T13:54:34;2.23;;;1.20;;
7525;SDS011;3804;50.860;6.208;2022-09-09T13:57:01;2.97;;;1.27;;
7525;SDS011;3804;50.860;6.208;2022-09-09T13:59:28;3.73;;;1.30;;
7525;SDS011;3804;50.860;6.208;2022-09-09T14:02:14;3.00;;;1.50;;
7525;SDS011;3804;50.860;6.208;2022-09-09T14:04:43;5.33;;;1.63;;
7525;SDS011;3804;50.860;6.208;2022-09-09T14:07:13;3.80;;;1.27;;
7525;SDS011;3804;50.860;6.208;2022-09-09T14:09:40;3.50;;;1.43;;
7525;SDS011;3804;50.860;6.208;2022-09-09T14:12:10;2.70;;;1.37;;
7525;SDS011;3804;50.860;6.208;2022-09-09T14:14:37;5.03;;;1.70;;
7525;SDS011;3804;50.860;6.208;2022-09-09T14:17:04;3.43;;;1.60;;
7525;SDS011;3804;50.860;6.208;2022-09-09T14:19:33;4.00;;;1.40;;
7525;SDS011;3804;50.860;6.208;2022-09-09T14:22:00;3.63;;;1.50;;
7525;SDS011;3804;50.860;6.208;2022-09-09T14:24:27;4.93;;;1.50;;
7525;SDS011;3804;50.860;6.208;2022-09-09T14:26:57;2.70;;;1.30;;
7525;SDS011;3804;50.860;6.208;2022-09-09T14:29:23;3.03;;;1.37;;
7525;SDS011;3804;50.860;6.208;2022-09-09T14:31:51;3.20;;;1.40;;
7525;SDS011;3804;50.860;6.208;2022-09-09T14:34:18;3.20;;;1.23;;
7525;SDS011;3804;50.860;6.208;2022-09-09T14:36:45;3.90;;;1.60;;
7525;SDS011;3804;50.860;6.208;2022-09-09T14:39:12;3.17;;;1.30;;
7525;SDS011;3804;50.860;6.208;2022-09-09T14:41:38;2.60;;;1.40;;
7525;SDS011;3804;50.860;6.208;2022-09-09T14:44:05;5.40;;;1.60;;
7525;SDS011;3804;50.860;6.208;2022-09-09T14:46:31;4.60;;;1.97;;
7525;SDS011;3804;50.860;6.208;2022-09-09T14:48:59;2.87;;;1.60;;
7525;SDS011;3804;50.860;6.208;2022-09-09T14:51:26;2.63;;;1.20;;
7525;SDS011;3804;50.860;6.208;2022-09-09T14:53:55;3.17;;;1.30;;
7525;SDS011;3804;50.860;6.208;2022-09-09T14:56:22;2.50;;;1.17;;
7525;SDS011;3804;50.860;6.208;2022-09-09T14:58:50;2.20;;;1.30;;
7525;SDS011;3804;50.860;6.208;2022-09-09T15:01:18;2.23;;;1.20;;
7525;SDS011;3804;50.860;6.208;2022-09-09T15:03:49;2.53;;;1.30;;
7525;SDS011;3804;50.860;6.208;2022-09-09T15:06:16;1.57;;;1.00;;
7525;SDS011;3804;50.860;6.208;2022-09-09T15:08:43;2.53;;;1.10;;
7525;SDS011;3804;50.860;6.208;2022-09-09T15:11:10;2.30;;;1.20;;
7525;SDS011;3804;50.860;6.208;2022-09-09T15:13:38;1.10;;;1.00;;
7525;SDS011;3804;50.860;6.208;2022-09-09T15:16:15;1.63;;;1.07;;
7525;SDS011;3804;50.860;6.208;2022-09-09T15:18:42;1.57;;;1.10;;
7525;SDS011;3804;50.860;6.208;2022-09-09T15:21:18;2.63;;;1.30;;
7525;SDS011;3804;50.860;6.208;2022-09-09T15:23:48;3.70;;;1.50;;
7525;SDS011;3804;50.860;6.208;2022-09-09T15:26:14;4.17;;;1.53;;
7525;SDS011;3804;50.860;6.208;2022-09-09T15:28:42;5.27;;;1.60;;
7525;SDS011;3804;50.860;6.208;2022-09-09T15:33:40;3.00;;;1.70;;
7525;SDS011;3804;50.860;6.208;2022-09-09T15:38:41;4.13;;;1.60;;
7525;SDS011;3804;50.860;6.208;2022-09-09T15:41:07;6.07;;;1.77;;
7525;SDS011;3804;50.860;6.208;2022-09-09T15:43:34;2.57;;;1.60;;
7525;SDS011;3804;50.860;6.208;2022-09-09T15:46:05;2.50;;;1.57;;
7525;SDS011;3804;50.860;6.208;2022-09-09T15:48:35;4.57;;;1.67;;
7525;SDS011;3804;50.860;6.208;2022-09-09T15:51:22;2.30;;;1.37;;
7525;SDS011;3804;50.860;6.208;2022-09-09T15:54:07;4.00;;;1.50;;
7525;SDS011;3804;50.860;6.208;2022-09-09T15:56:34;5.80;;;1.53;;
7525;SDS011;3804;50.860;6.208;2022-09-09T15:59:02;3.20;;;1.43;;
7525;SDS011;3804;50.860;6.208;2022-09-09T16:01:30;3.20;;;1.40;;
7525;SDS011;3804;50.860;6.208;2022-09-09T16:03:58;2.03;;;1.30;;
7525;SDS011;3804;50.860;6.208;2022-09-09T16:06:25;1.90;;;1.20;;
7525;SDS011;3804;50.860;6.208;2022-09-09T16:08:55;5.33;;;1.63;;
7525;SDS011;3804;50.860;6.208;2022-09-09T16:11:23;3.30;;;1.40;;
7525;SDS011;3804;50.860;6.208;2022-09-09T16:13:50;4.90;;;2.10;;
7525;SDS011;3804;50.860;6.208;2022-09-09T16:16:18;5.93;;;2.00;;
7525;SDS011;3804;50.860;6.208;2022-09-09T16:18:52;3.87;;;2.47;;
7525;SDS011;3804;50.860;6.208;2022-09-09T16:21:24;4.20;;;1.87;;
7525;SDS011;3804;50.860;6.208;2022-09-09T16:23:51;2.13;;;1.10;;
7525;SDS011;3804;50.860;6.208;2022-09-09T16:26:18;1.97;;;1.00;;
7525;SDS011;3804;50.860;6.208;2022-09-09T16:28:44;2.40;;;1.20;;
7525;SDS011;3804;50.860;6.208;2022-09-09T16:31:13;4.63;;;1.67;;
7525;SDS011;3804;50.860;6.208;2022-09-09T16:33:40;3.43;;;1.33;;
7525;SDS011;3804;50.860;6.208;2022-09-09T16:36:11;3.33;;;1.70;;
7525;SDS011;3804;50.860;6.208;2022-09-09T16:38:38;5.67;;;1.63;;
7525;SDS011;3804;50.860;6.208;2022-09-09T16:41:05;2.70;;;1.33;;
7525;SDS011;3804;50.860;6.208;2022-09-09T16:43:33;1.63;;;1.33;;
7525;SDS011;3804;50.860;6.208;2022-09-09T16:46:00;2.03;;;1.20;;
7525;SDS011;3804;50.860;6.208;2022-09-09T16:48:30;3.97;;;1.30;;
7525;SDS011;3804;50.860;6.208;2022-09-09T16:51:06;4.17;;;1.60;;
7525;SDS011;3804;50.860;6.208;2022-09-09T16:53:33;2.03;;;1.70;;
7525;SDS011;3804;50.860;6.208;2022-09-09T16:56:06;2.30;;;1.80;;
7525;SDS011;3804;50.860;6.208;2022-09-09T16:58:33;3.80;;;1.60;;
7525;SDS011;3804;50.860;6.208;2022-09-09T17:01:00;3.47;;;1.70;;
7525;SDS011;3804;50.860;6.208;2022-09-09T17:03:29;3.67;;;1.83;;
7525;SDS011;3804;50.860;6.208;2022-09-09T17:05:55;2.80;;;1.67;;
7525;SDS011;3804;50.860;6.208;2022-09-09T17:08:24;2.47;;;1.60;;
7525;SDS011;3804;50.860;6.208;2022-09-09T17:10:50;5.47;;;1.67;;
7525;SDS011;3804;50.860;6.208;2022-09-09T17:13:17;3.77;;;1.50;;
7525;SDS011;3804;50.860;6.208;2022-09-09T17:15:45;4.47;;;1.50;;
7525;SDS011;3804;50.860;6.208;2022-09-09T17:18:12;2.90;;;1.40;;
7525;SDS011;3804;50.860;6.208;2022-09-09T17:20:39;3.23;;;1.70;;
7525;SDS011;3804;50.860;6.208;2022-09-09T17:23:12;3.57;;;1.83;;
7525;SDS011;3804;50.860;6.208;2022-09-09T17:25:41;4.47;;;1.80;;
7525;SDS011;3804;50.860;6.208;2022-09-09T17:28:08;2.67;;;1.80;;
7525;SDS011;3804;50.860;6.208;2022-09-09T17:30:35;11.07;;;10.13;;
7525;SDS011;3804;50.860;6.208;2022-09-09T17:33:03;61.47;;;32.07;;
7525;SDS011;3804;50.860;6.208;2022-09-09T17:35:30;43.07;;;29.13;;
7525;SDS011;3804;50.860;6.208;2022-09-09T17:37:57;5.07;;;3.00;;
7525;SDS011;3804;50.860;6.208;2022-09-09T17:40:24;12.20;;;10.00;;